createdAt,value
2022-10-06T00:07:32.000Z,95.0
2022-10-06T00:21:32.008Z,94.0
2022-10-06T00:35:31.645Z,95.0
2022-10-06T00:49:31.664Z,95.0
2022-10-06T01:03:31.805Z,95.0
2022-10-06T01:17:31.975Z,95.0
2022-10-06T01:31:32.029Z,95.0
2022-10-06T01:45:31.938Z,95.0
2022-10-06T01:59:31.968Z,95.0
2022-10-06T02:13:31.969Z,95.0
2022-10-06T02:27:31.995Z,95.0
2022-10-06T02:41:31.979Z,94.0
2022-10-06T02:55:32.046Z,94.0
2022-10-06T03:09:32.082Z,94.0
2022-10-06T03:23:32.085Z,94.0
2022-10-06T03:37:32.283Z,94.0
2022-10-06T03:51:32.122Z,94.0
2022-10-06T04:05:32.196Z,94.0
2022-10-06T04:19:32.188Z,94.0
2022-10-06T04:33:32.193Z,95.0
2022-10-06T04:47:32.214Z,95.0
2022-10-06T05:01:32.235Z,95.0
2022-10-06T05:15:32.229Z,96.0
2022-10-06T05:30:32.255Z,96.0
2022-10-06T05:45:32.301Z,95.0
2022-10-06T06:00:32.212Z,96.0
2022-10-06T06:15:32.268Z,96.0
2022-10-06T06:30:32.243Z,95.0
2022-10-06T06:45:32.262Z,94.0
2022-10-06T07:00:35.990Z,91.0
2022-10-06T07:15:32.302Z,88.0
2022-10-06T07:30:33.437Z,86.0
2022-10-06T07:45:32.291Z,82.0
2022-10-06T08:15:32.258Z,69.0
2022-10-06T08:30:32.339Z,65.0
2022-10-06T08:45:36.246Z,66.0
2022-10-06T09:00:32.294Z,65.0
2022-10-06T09:15:32.346Z,64.0
2022-10-06T09:30:32.326Z,65.0
2022-10-06T09:45:32.298Z,63.0
2022-10-06T10:00:32.389Z,62.0
2022-10-06T10:15:32.310Z,63.0
2022-10-06T10:30:32.321Z,61.0
2022-10-06T10:45:32.308Z,60.0
2022-10-06T11:01:36.787Z,63.0
2022-10-06T11:15:27.445Z,61.0
2022-10-06T11:30:27.395Z,63.0
2022-10-06T11:45:27.472Z,60.0
2022-10-06T12:00:27.508Z,58.0
2022-10-06T12:30:27.540Z,56.0
2022-10-06T12:45:27.583Z,56.0
2022-10-06T13:00:27.612Z,54.0
2022-10-06T13:15:27.860Z,54.0
2022-10-06T13:30:27.953Z,56.0
2022-10-06T13:45:27.972Z,58.0
2022-10-06T14:00:28.062Z,59.0
2022-10-06T14:08:04.195Z,58.0
2022-10-06T14:23:05.176Z,54.0
2022-10-06T14:38:05.385Z,57.0
2022-10-06T14:53:05.397Z,56.0
2022-10-06T15:08:05.376Z,58.0
2022-10-06T15:23:05.707Z,57.0
2022-10-06T15:38:05.844Z,62.0
2022-10-06T15:53:06.639Z,66.0
2022-10-06T16:09:06.971Z,74.0
2022-10-06T16:24:06.701Z,80.0
2022-10-06T16:39:06.735Z,84.0
2022-10-06T16:54:06.742Z,87.0
2022-10-06T17:09:06.749Z,89.0
2022-10-06T17:24:06.985Z,88.0
2022-10-06T17:38:07.337Z,87.0
2022-10-06T17:52:06.990Z,88.0
2022-10-06T18:06:06.940Z,88.0
2022-10-06T18:20:06.991Z,89.0
2022-10-06T18:48:07.526Z,90.0
2022-10-06T19:02:07.237Z,90.0
2022-10-06T19:16:07.253Z,90.0
2022-10-06T19:30:07.428Z,91.0
2022-10-06T19:44:07.739Z,91.0
2022-10-06T19:58:07.442Z,91.0
2022-10-06T20:12:07.791Z,90.0
2022-10-06T20:26:07.452Z,90.0
2022-10-06T20:40:07.473Z,90.0
2022-10-06T20:54:07.443Z,90.0
2022-10-06T21:08:07.471Z,89.0
2022-10-06T21:22:07.445Z,88.0
2022-10-06T21:36:07.451Z,89.0
2022-10-06T21:50:07.454Z,88.0
2022-10-06T22:04:07.613Z,89.0
2022-10-06T22:18:07.635Z,90.0
2022-10-06T22:32:07.619Z,89.0
2022-10-06T22:46:07.702Z,91.0
2022-10-06T23:00:07.808Z,92.0
2022-10-06T23:14:07.652Z,92.0
2022-10-06T23:28:07.697Z,92.0
2022-10-06T23:42:07.694Z,91.0
2022-10-06T23:56:07.713Z,91.0
